Time;durP1;ratioP1;P1;durP2;ratioP2;P2;SDS_P1;SDS_P2;PMS_P1;PMS_P2;Temp;Humidity;BMP_temperature;BMP_pressure;BME280_temperature;BME280_humidity;BME280_pressure;Samples;Min_cycle;Max_cycle;Signal;HPM_P1;HPM_P2
2022/09/03 00:00:40;;;;;;;8.07;2.40;;;;;;;;;;5143075;27;20046;-71
2022/09/03 00:03:20;;;;;;;10.27;2.30;;;;;;;;;;5120581;27;20447;-69
2022/09/03 00:06:04;;;;;;;7.38;2.08;;;;;;;;;;5144889;27;20038;-70
2022/09/03 00:08:42;;;;;;;13.70;2.58;;;;;;;;;;5150589;27;20047;-68
2022/09/03 00:11:26;;;;;;;6.07;2.00;;;;;;;;;;5140238;27;20163;-72
2022/09/03 00:14:10;;;;;;;9.30;2.22;;;;;;;;;;5121328;27;20062;-72
2022/09/03 00:16:54;;;;;;;6.78;2.80;;;;;;;;;;5129633;27;20046;-70
2022/09/03 00:19:27;;;;;;;9.13;2.30;;;;;;;;;;5135233;27;20071;-73
2022/09/03 00:21:58;;;;;;;8.52;2.10;;;;;;;;;;5116324;27;20070;-75
2022/09/03 00:24:27;;;;;;;8.50;2.20;;;;;;;;;;5122215;27;20087;-70
2022/09/03 00:26:56;;;;;;;9.45;2.50;;;;;;;;;;5133523;27;20119;-75
2022/09/03 00:29:25;;;;;;;9.30;2.17;;;;;;;;;;5129827;27;20051;-70
2022/09/03 00:31:55;;;;;;;12.65;2.53;;;;;;;;;;5129571;27;20043;-72
2022/09/03 00:34:24;;;;;;;8.05;2.20;;;;;;;;;;5137410;27;20038;-71
2022/09/03 00:36:51;;;;;;;5.32;2.10;;;;;;;;;;5143841;27;20047;-71
2022/09/03 00:39:21;;;;;;;8.57;2.25;;;;;;;;;;5149034;27;20078;-69
2022/09/03 00:42:06;;;;;;;7.40;2.35;;;;;;;;;;5146243;27;20134;-71
2022/09/03 00:44:33;;;;;;;7.25;1.92;;;;;;;;;;5147734;27;20107;-69
2022/09/03 00:47:12;;;;;;;10.60;2.13;;;;;;;;;;5144852;27;20047;-69
2022/09/03 00:49:38;;;;;;;6.80;2.00;;;;;;;;;;5121409;27;20078;-68
2022/09/03 00:52:11;;;;;;;5.82;1.85;;;;;;;;;;5147314;27;20406;-69
2022/09/03 00:54:51;;;;;;;5.97;2.08;;;;;;;;;;5150260;27;20193;-68
2022/09/03 00:57:36;;;;;;;8.35;2.17;;;;;;;;;;5146291;27;20525;-71
2022/09/03 01:00:06;;;;;;;5.25;2.00;;;;;;;;;;5149840;27;20045;-70
2022/09/03 01:02:46;;;;;;;8.15;2.00;;;;;;;;;;5144464;27;20062;-70
2022/09/03 01:05:33;;;;;;;12.45;1.90;;;;;;;;;;5148284;27;20047;-70
2022/09/03 01:08:00;;;;;;;;;;;;;;;;;;5141981;27;20099;-76
2022/09/03 01:10:33;;;;;;;4.60;1.80;;;;;;;;;;5150157;27;20009;-70
2022/09/03 01:12:59;;;;;;;7.50;2.20;;;;;;;;;;5147601;27;20043;-77
2022/09/03 01:15:41;;;;;;;7.45;2.20;;;;;;;;;;5147831;27;20043;-72
2022/09/03 01:18:19;;;;;;;7.50;2.17;;;;;;;;;;5136742;27;20055;-73
2022/09/03 01:21:03;;;;;;;8.95;2.25;;;;;;;;;;5149962;27;20085;-70
2022/09/03 01:23:47;;;;;;;6.63;2.20;;;;;;;;;;5139242;27;20397;-71
2022/09/03 01:26:14;;;;;;;9.65;2.50;;;;;;;;;;5127829;27;20508;-72
2022/09/03 01:28:41;;;;;;;8.68;2.28;;;;;;;;;;5148212;27;20061;-70
2022/09/03 01:31:14;;;;;;;9.48;2.20;;;;;;;;;;5144708;27;20075;-70
2022/09/03 01:33:45;;;;;;;9.27;2.55;;;;;;;;;;5135628;27;20048;-74
2022/09/03 01:36:14;;;;;;;8.10;1.90;;;;;;;;;;5150579;27;20057;-72
2022/09/03 01:38:47;;;;;;;6.43;2.22;;;;;;;;;;5125261;27;21836;-71
2022/09/03 01:44:22;;;;;;;8.70;2.05;;;;;;;;;;5137962;27;20042;-77
2022/09/03 01:46:51;;;;;;;6.88;2.40;;;;;;;;;;5132102;27;20066;-74
2022/09/03 01:49:32;;;;;;;8.60;2.40;;;;;;;;;;5141325;27;20127;-74
2022/09/03 01:52:02;;;;;;;9.68;2.28;;;;;;;;;;5148720;27;20512;-71
2022/09/03 01:54:38;;;;;;;6.63;2.20;;;;;;;;;;5139729;27;20118;-73
2022/09/03 01:57:08;;;;;;;10.52;2.47;;;;;;;;;;5151242;27;20051;-78
2022/09/03 01:59:41;;;;;;;6.97;2.60;;;;;;;;;;5150875;27;20047;-70
2022/09/03 02:02:14;;;;;;;10.55;2.67;;;;;;;;;;5148666;27;20042;-72
2022/09/03 02:04:42;;;;;;;6.72;2.35;;;;;;;;;;5137790;27;20042;-73
2022/09/03 02:07:08;;;;;;;9.65;2.40;;;;;;;;;;5148489;27;20062;-72
2022/09/03 02:09:34;;;;;;;7.90;2.28;;;;;;;;;;5136942;27;20551;-70
2022/09/03 02:12:08;;;;;;;8.00;2.55;;;;;;;;;;5132131;27;20134;-73
2022/09/03 02:14:35;;;;;;;7.82;2.50;;;;;;;;;;5117545;27;20076;-71
2022/09/03 02:17:03;;;;;;;6.63;2.60;;;;;;;;;;5152252;27;20477;-73
2022/09/03 02:19:30;;;;;;;8.93;2.67;;;;;;;;;;5112796;27;20079;-70
2022/09/03 02:21:56;;;;;;;7.30;2.50;;;;;;;;;;5131184;27;20141;-71
2022/09/03 02:24:23;;;;;;;8.20;2.72;;;;;;;;;;5133597;27;20130;-70
2022/09/03 02:26:49;;;;;;;8.13;2.75;;;;;;;;;;5133966;27;20073;-71
2022/09/03 02:29:16;;;;;;;10.60;3.08;;;;;;;;;;5134268;27;20070;-70
2022/09/03 02:31:43;;;;;;;7.90;2.55;;;;;;;;;;5123564;27;20062;-70
2022/09/03 02:34:09;;;;;;;7.43;2.58;;;;;;;;;;5122822;27;20442;-75
2022/09/03 02:36:44;;;;;;;7.75;2.70;;;;;;;;;;5151600;27;20082;-71
2022/09/03 02:39:11;;;;;;;8.50;2.63;;;;;;;;;;5151025;27;20072;-77
2022/09/03 02:41:37;;;;;;;7.32;2.58;;;;;;;;;;5146432;27;20112;-74
2022/09/03 02:44:08;;;;;;;7.85;3.17;;;;;;;;;;5138790;27;20096;-74
2022/09/03 02:46:44;;;;;;;9.48;2.50;;;;;;;;;;5144147;27;20428;-72
2022/09/03 02:49:10;;;;;;;13.68;3.00;;;;;;;;;;5149280;27;20046;-74
2022/09/03 02:51:38;;;;;;;7.45;2.72;;;;;;;;;;5150289;27;20435;-74
2022/09/03 02:54:08;;;;;;;8.30;2.72;;;;;;;;;;5139264;27;20063;-71
2022/09/03 02:56:34;;;;;;;10.13;2.80;;;;;;;;;;5137401;27;20042;-70
2022/09/03 02:59:01;;;;;;;7.57;2.80;;;;;;;;;;5140523;27;20088;-70
2022/09/03 03:01:27;;;;;;;8.13;2.30;;;;;;;;;;5133591;27;20470;-70
2022/09/03 03:03:53;;;;;;;11.20;2.88;;;;;;;;;;5140390;27;20133;-70
2022/09/03 03:06:19;;;;;;;7.90;2.95;;;;;;;;;;5130694;27;20042;-73
2022/09/03 03:08:45;;;;;;;;;;;;;;;;;;5108495;27;20110;-71
2022/09/03 03:11:17;;;;;;;8.23;2.72;;;;;;;;;;5137300;27;19923;-69
2022/09/03 03:13:43;;;;;;;8.15;2.80;;;;;;;;;;5126877;27;20051;-71
2022/09/03 03:16:09;;;;;;;12.95;2.92;;;;;;;;;;5142542;27;20087;-72
2022/09/03 03:18:35;;;;;;;10.60;2.72;;;;;;;;;;5144931;27;20293;-71
2022/09/03 03:21:12;;;;;;;6.47;2.40;;;;;;;;;;5143128;27;20073;-73
2022/09/03 03:23:39;;;;;;;6.60;2.50;;;;;;;;;;5145548;27;20391;-71
2022/09/03 03:26:05;;;;;;;7.32;2.42;;;;;;;;;;5112683;27;20137;-70
2022/09/03 03:28:34;;;;;;;10.00;2.90;;;;;;;;;;5133588;27;20097;-71
2022/09/03 03:31:10;;;;;;;12.27;2.70;;;;;;;;;;5130918;27;20055;-71
2022/09/03 03:33:37;;;;;;;8.82;2.63;;;;;;;;;;5145829;27;20612;-71
2022/09/03 03:36:03;;;;;;;;;;;;;;;;;;5131100;27;20055;-71
2022/09/03 03:38:29;;;;;;;8.35;2.50;;;;;;;;;;5148551;27;19984;-74
2022/09/03 03:40:55;;;;;;;12.48;2.55;;;;;;;;;;5126786;27;20355;-73
2022/09/03 03:43:21;;;;;;;9.60;2.60;;;;;;;;;;5124744;27;20043;-72
2022/09/03 03:45:57;;;;;;;6.70;2.40;;;;;;;;;;5130239;27;20458;-71
2022/09/03 03:48:23;;;;;;;9.13;2.47;;;;;;;;;;5129994;27;20092;-70
2022/09/03 03:50:49;;;;;;;;;;;;;;;;;;5146070;27;20446;-71
2022/09/03 03:53:15;;;;;;;7.50;2.70;;;;;;;;;;5148521;27;19970;-76
2022/09/03 03:55:41;;;;;;;7.90;2.80;;;;;;;;;;5130122;27;20126;-70
2022/09/03 03:58:16;;;;;;;7.93;2.78;;;;;;;;;;5139031;27;20468;-70
2022/09/03 04:00:42;;;;;;;8.25;2.50;;;;;;;;;;5124336;27;20081;-71
2022/09/03 04:03:08;;;;;;;;;;;;;;;;;;5132205;27;20038;-72
2022/09/03 04:05:34;;;;;;;8.48;2.80;;;;;;;;;;5147778;27;20356;-71
2022/09/03 04:08:01;;;;;;;8.27;2.60;;;;;;;;;;5150814;27;20378;-70
2022/09/03 04:10:27;;;;;;;8.15;2.75;;;;;;;;;;5146230;27;20050;-70
2022/09/03 04:12:54;;;;;;;8.00;2.78;;;;;;;;;;5149136;27;20046;-70
2022/09/03 04:15:20;;;;;;;10.18;3.20;;;;;;;;;;5118392;27;20138;-71
2022/09/03 04:17:46;;;;;;;8.85;2.60;;;;;;;;;;5145940;27;20103;-71
2022/09/03 04:20:13;;;;;;;9.13;2.88;;;;;;;;;;5139187;27;20047;-71
2022/09/03 04:22:39;;;;;;;8.23;2.95;;;;;;;;;;5149287;27;20485;-70
2022/09/03 04:25:05;;;;;;;9.48;3.00;;;;;;;;;;5139998;27;20047;-70
2022/09/03 04:27:31;;;;;;;8.23;2.70;;;;;;;;;;5129180;27;20050;-69
2022/09/03 04:29:57;;;;;;;11.48;3.00;;;;;;;;;;5136364;27;20062;-70
2022/09/03 04:35:08;;;;;;;8.38;2.85;;;;;;;;;;5140522;27;20047;-69
2022/09/03 04:37:34;;;;;;;8.88;3.83;;;;;;;;;;5120863;27;20115;-70
2022/09/03 04:40:00;;;;;;;8.90;2.80;;;;;;;;;;5144944;27;20050;-70
2022/09/03 04:42:27;;;;;;;8.02;2.80;;;;;;;;;;5123735;27;20035;-73
2022/09/03 04:44:53;;;;;;;10.02;2.88;;;;;;;;;;5111486;27;20482;-71
2022/09/03 04:47:19;;;;;;;9.80;3.00;;;;;;;;;;5120379;28;20050;-69
2022/09/03 04:49:45;;;;;;;7.93;2.92;;;;;;;;;;5136229;27;20061;-71
2022/09/03 04:52:11;;;;;;;7.95;2.83;;;;;;;;;;5130195;28;20120;-71
2022/09/03 04:54:37;;;;;;;9.90;3.30;;;;;;;;;;5140609;27;20535;-71
2022/09/03 04:57:04;;;;;;;8.18;2.80;;;;;;;;;;5147799;27;20143;-70
2022/09/03 04:59:30;;;;;;;10.65;3.10;;;;;;;;;;5146055;27;20127;-71
2022/09/03 05:01:56;;;;;;;12.43;3.20;;;;;;;;;;5129577;27;20051;-71
2022/09/03 05:04:22;;;;;;;8.07;2.80;;;;;;;;;;5094491;28;20111;-71
2022/09/03 05:06:48;;;;;;;7.80;2.80;;;;;;;;;;5143591;27;20494;-74
2022/09/03 05:09:14;;;;;;;7.05;2.78;;;;;;;;;;5130636;27;20046;-74
2022/09/03 05:11:40;;;;;;;9.05;2.90;;;;;;;;;;5124458;27;20118;-70
2022/09/03 05:14:10;;;;;;;8.80;2.90;;;;;;;;;;5133496;27;20050;-70
2022/09/03 05:16:36;;;;;;;10.77;3.08;;;;;;;;;;5133263;27;20047;-71
2022/09/03 05:19:04;;;;;;;9.60;2.90;;;;;;;;;;5132361;27;20594;-73
2022/09/03 05:21:31;;;;;;;9.48;2.90;;;;;;;;;;5126589;27;20099;-77
2022/09/03 05:23:59;;;;;;;9.20;3.08;;;;;;;;;;5125244;27;20063;-74
2022/09/03 05:26:26;;;;;;;7.43;3.03;;;;;;;;;;5106482;27;20107;-72
2022/09/03 05:28:53;;;;;;;11.23;3.10;;;;;;;;;;5126471;27;20042;-74
2022/09/03 05:31:20;;;;;;;10.00;3.05;;;;;;;;;;5129589;27;20050;-71
2022/09/03 05:33:47;;;;;;;8.30;3.20;;;;;;;;;;5142319;27;20046;-70
2022/09/03 05:36:15;;;;;;;9.30;2.90;;;;;;;;;;5143642;27;20434;-71
2022/09/03 05:38:41;;;;;;;9.43;3.05;;;;;;;;;;5132288;27;20050;-70
2022/09/03 05:41:08;;;;;;;8.82;3.03;;;;;;;;;;5141341;27;20072;-69
2022/09/03 05:43:35;;;;;;;7.82;3.00;;;;;;;;;;5133701;27;20045;-73
2022/09/03 05:46:01;;;;;;;11.85;2.92;;;;;;;;;;5127956;27;20062;-69
2022/09/03 05:48:32;;;;;;;8.63;2.97;;;;;;;;;;5121198;27;20119;-70
2022/09/03 05:50:59;;;;;;;8.90;3.00;;;;;;;;;;5150605;27;20152;-74
2022/09/03 05:53:25;;;;;;;9.30;3.17;;;;;;;;;;5151351;27;20429;-69
2022/09/03 05:55:58;;;;;;;11.52;2.90;;;;;;;;;;5147467;27;20073;-70
2022/09/03 05:58:25;;;;;;;7.85;3.00;;;;;;;;;;5152140;27;20046;-72
2022/09/03 06:00:52;;;;;;;7.82;2.90;;;;;;;;;;5146133;27;20046;-72
2022/09/03 06:03:18;;;;;;;8.07;2.92;;;;;;;;;;5140571;27;20043;-70
2022/09/03 06:05:54;;;;;;;8.50;3.00;;;;;;;;;;5137031;27;20410;-71
2022/09/03 06:08:21;;;;;;;10.57;2.70;;;;;;;;;;5151309;27;20047;-70
2022/09/03 06:10:47;;;;;;;8.00;3.00;;;;;;;;;;5150003;27;20482;-72
2022/09/03 06:13:13;;;;;;;13.95;3.30;;;;;;;;;;5147185;27;20142;-68
2022/09/03 06:15:39;;;;;;;;;;;;;;;;;;5147429;27;20416;-73
2022/09/03 06:18:06;;;;;;;8.98;3.05;;;;;;;;;;5143109;27;20039;-72
2022/09/03 06:20:33;;;;;;;8.48;3.03;;;;;;;;;;5148271;27;20095;-70
2022/09/03 06:22:59;;;;;;;7.85;2.97;;;;;;;;;;5123007;27;20059;-70
2022/09/03 06:25:26;;;;;;;7.60;2.97;;;;;;;;;;5122220;27;20063;-72
2022/09/03 06:27:52;;;;;;;8.75;2.90;;;;;;;;;;5097443;27;20052;-74
2022/09/03 06:30:22;;;;;;;12.10;3.17;;;;;;;;;;5121866;27;20051;-71
2022/09/03 06:32:49;;;;;;;8.73;3.22;;;;;;;;;;5109218;27;20666;-72
2022/09/03 06:35:16;;;;;;;7.45;3.00;;;;;;;;;;5108695;27;20596;-72
2022/09/03 06:37:42;;;;;;;8.77;2.70;;;;;;;;;;5109678;27;20115;-71
2022/09/03 06:40:13;;;;;;;9.40;3.20;;;;;;;;;;5123372;27;20116;-69
2022/09/03 06:42:43;;;;;;;10.15;3.53;;;;;;;;;;5105196;27;20050;-68
2022/09/03 06:45:09;;;;;;;12.40;3.28;;;;;;;;;;5112245;27;20375;-69
2022/09/03 06:47:36;;;;;;;8.27;2.80;;;;;;;;;;5111457;27;20464;-70
2022/09/03 06:50:02;;;;;;;8.93;2.67;;;;;;;;;;5091414;27;20079;-70
2022/09/03 06:52:29;;;;;;;9.70;3.20;;;;;;;;;;5102147;28;20047;-71
2022/09/03 06:54:55;;;;;;;7.80;2.88;;;;;;;;;;5109669;28;20047;-71
2022/09/03 06:57:21;;;;;;;8.55;3.08;;;;;;;;;;5107749;27;20138;-73
2022/09/03 06:59:48;;;;;;;9.98;3.03;;;;;;;;;;5095634;28;20055;-69
2022/09/03 07:02:14;;;;;;;9.45;3.00;;;;;;;;;;5118188;27;20142;-70
2022/09/03 07:04:40;;;;;;;11.30;3.38;;;;;;;;;;5108646;28;20085;-69
2022/09/03 07:07:12;;;;;;;11.02;3.05;;;;;;;;;;5108787;27;20059;-68
2022/09/03 07:09:40;;;;;;;7.28;3.00;;;;;;;;;;5101324;28;20092;-74
2022/09/03 07:12:06;;;;;;;9.45;3.10;;;;;;;;;;5103080;27;20051;-68
2022/09/03 07:14:32;;;;;;;;;;;;;;;;;;5107733;28;20222;-71
2022/09/03 07:16:58;;;;;;;7.93;2.90;;;;;;;;;;5099777;28;19919;-72
2022/09/03 07:19:24;;;;;;;9.15;2.72;;;;;;;;;;5096486;27;20142;-68
2022/09/03 07:21:50;;;;;;;7.40;2.38;;;;;;;;;;5114435;27;20534;-68
2022/09/03 07:24:17;;;;;;;8.85;2.60;;;;;;;;;;5133964;27;20047;-70
2022/09/03 07:26:45;;;;;;;11.05;2.90;;;;;;;;;;5139384;27;20039;-71
2022/09/03 07:29:11;;;;;;;8.85;2.70;;;;;;;;;;5127281;27;20127;-69
2022/09/03 07:31:39;;;;;;;10.93;2.70;;;;;;;;;;5127750;27;21322;-71
2022/09/03 07:34:06;;;;;;;8.98;3.00;;;;;;;;;;5129971;27;20210;-72
2022/09/03 07:36:41;;;;;;;7.07;2.70;;;;;;;;;;5130242;27;20324;-68
2022/09/03 07:39:08;;;;;;;8.07;2.67;;;;;;;;;;5140925;27;20061;-73
2022/09/03 07:41:34;;;;;;;9.30;2.92;;;;;;;;;;5149838;27;20067;-70
2022/09/03 07:44:04;;;;;;;9.68;2.80;;;;;;;;;;5131645;27;20083;-68
2022/09/03 07:46:31;;;;;;;9.30;2.90;;;;;;;;;;5138033;27;20109;-69
2022/09/03 07:48:57;;;;;;;7.78;2.60;;;;;;;;;;5149460;27;20122;-69
2022/09/03 07:51:25;;;;;;;8.27;2.40;;;;;;;;;;5142941;27;20081;-70
2022/09/03 07:53:53;;;;;;;8.00;2.75;;;;;;;;;;5125382;27;20375;-75
2022/09/03 07:56:19;;;;;;;8.48;2.65;;;;;;;;;;5149793;27;20070;-70
2022/09/03 07:58:46;;;;;;;6.15;2.30;;;;;;;;;;5147384;27;20049;-80
2022/09/03 08:01:14;;;;;;;6.18;2.40;;;;;;;;;;5136047;27;20413;-72
2022/09/03 08:03:44;;;;;;;9.50;2.80;;;;;;;;;;5140708;27;20125;-76
2022/09/03 08:06:10;;;;;;;7.93;2.65;;;;;;;;;;5131603;27;20103;-70
2022/09/03 08:08:36;;;;;;;9.98;3.08;;;;;;;;;;5095009;27;20102;-72
2022/09/03 08:11:06;;;;;;;10.95;3.10;;;;;;;;;;5128848;27;20071;-73
2022/09/03 08:13:32;;;;;;;10.30;2.50;;;;;;;;;;5111541;27;20056;-71
2022/09/03 08:16:00;;;;;;;7.63;2.40;;;;;;;;;;5111334;27;20054;-68
2022/09/03 08:18:28;;;;;;;8.38;2.75;;;;;;;;;;5129439;27;20054;-70
2022/09/03 08:20:58;;;;;;;9.00;2.58;;;;;;;;;;5129671;27;20082;-75
2022/09/03 08:23:25;;;;;;;10.75;2.90;;;;;;;;;;5111995;27;20046;-70
2022/09/03 08:25:57;;;;;;;8.15;2.63;;;;;;;;;;5149321;27;20082;-73
2022/09/03 08:28:23;;;;;;;8.65;2.78;;;;;;;;;;5142719;27;20098;-72
2022/09/03 08:30:50;;;;;;;7.93;2.50;;;;;;;;;;5143409;27;20363;-72
2022/09/03 08:33:16;;;;;;;11.15;2.38;;;;;;;;;;5119094;27;20130;-73
2022/09/03 08:35:42;;;;;;;10.07;2.70;;;;;;;;;;5099005;27;20047;-67
2022/09/03 08:38:08;;;;;;;11.15;2.70;;;;;;;;;;5140450;27;20396;-74
2022/09/03 08:40:37;;;;;;;8.65;2.63;;;;;;;;;;5127859;27;20047;-66
2022/09/03 08:43:17;;;;;;;11.98;2.60;;;;;;;;;;5147514;27;20068;-66
2022/09/03 08:45:43;;;;;;;9.30;2.35;;;;;;;;;;5128887;27;20038;-65
2022/09/03 08:48:13;;;;;;;9.40;2.75;;;;;;;;;;5126451;27;20091;-65
2022/09/03 08:50:44;;;;;;;9.43;2.65;;;;;;;;;;5145552;27;20074;-64
2022/09/03 08:53:17;;;;;;;9.55;2.67;;;;;;;;;;5140767;27;20118;-65
2022/09/03 08:56:05;;;;;;;7.70;2.70;;;;;;;;;;5132884;27;20228;-67
2022/09/03 08:58:33;;;;;;;9.35;2.55;;;;;;;;;;5141717;27;20066;-64
2022/09/03 09:01:03;;;;;;;8.90;2.60;;;;;;;;;;5119303;28;20043;-78
2022/09/03 09:03:35;;;;;;;7.53;2.50;;;;;;;;;;5141220;27;20118;-75
2022/09/03 09:06:12;;;;;;;9.00;2.30;;;;;;;;;;5122465;27;20119;-69
2022/09/03 09:08:58;;;;;;;10.38;2.50;;;;;;;;;;5127636;27;20051;-73
2022/09/03 09:11:30;;;;;;;10.05;2.67;;;;;;;;;;5137737;27;20046;-76
2022/09/03 09:14:05;;;;;;;6.72;2.60;;;;;;;;;;5125209;27;20070;-70
2022/09/03 09:16:38;;;;;;;9.07;2.85;;;;;;;;;;5136450;27;20050;-65
2022/09/03 09:19:12;;;;;;;8.27;2.58;;;;;;;;;;5136307;27;20162;-74
2022/09/03 09:21:45;;;;;;;11.15;2.70;;;;;;;;;;5139641;27;20596;-72
2022/09/03 09:24:22;;;;;;;12.80;2.60;;;;;;;;;;5110366;28;20124;-72
2022/09/03 09:26:48;;;;;;;11.15;2.70;;;;;;;;;;5106401;28;20360;-79
2022/09/03 09:29:15;;;;;;;13.55;2.83;;;;;;;;;;5108494;28;20047;-64
2022/09/03 09:31:43;;;;;;;8.95;2.58;;;;;;;;;;5109223;28;20123;-67
2022/09/03 09:34:09;;;;;;;7.68;2.40;;;;;;;;;;5102087;28;20535;-70
2022/09/03 09:36:35;;;;;;;;;;;;;;;;;;5099497;28;20370;-67
2022/09/03 09:39:14;;;;;;;13.90;2.83;;;;;;;;;;5087198;28;19928;-70
2022/09/03 09:41:41;;;;;;;7.97;2.70;;;;;;;;;;5092366;28;20422;-70
2022/09/03 09:44:07;;;;;;;8.38;2.60;;;;;;;;;;5105807;28;20082;-69
2022/09/03 09:46:41;;;;;;;8.10;2.42;;;;;;;;;;5103839;28;20052;-78
2022/09/03 09:49:29;;;;;;;8.35;2.70;;;;;;;;;;5104737;28;20070;-71
2022/09/03 09:52:03;;;;;;;9.93;2.40;;;;;;;;;;5087064;28;20067;-69
2022/09/03 09:54:29;;;;;;;8.40;2.60;;;;;;;;;;5086365;28;20511;-72
2022/09/03 09:57:03;;;;;;;8.77;2.80;;;;;;;;;;5087248;28;20055;-69
2022/09/03 09:59:30;;;;;;;7.85;2.42;;;;;;;;;;5088523;28;20092;-71
2022/09/03 10:02:08;;;;;;;5.97;2.10;;;;;;;;;;5090541;28;20043;-75
2022/09/03 10:04:34;;;;;;;8.90;2.60;;;;;;;;;;5091055;28;20080;-72
2022/09/03 10:07:04;;;;;;;9.20;2.72;;;;;;;;;;5090592;28;20067;-73
2022/09/03 10:09:31;;;;;;;9.00;2.65;;;;;;;;;;5090725;28;20063;-69
2022/09/03 10:12:03;;;;;;;8.88;2.42;;;;;;;;;;5108173;28;20134;-70
2022/09/03 10:14:35;;;;;;;7.88;2.50;;;;;;;;;;5105958;28;20044;-68
2022/09/03 10:17:10;;;;;;;9.52;2.40;;;;;;;;;;5090804;28;20048;-69
2022/09/03 10:20:26;;;;;;;12.48;2.50;;;;;;;;;;5101109;28;20062;-73
2022/09/03 10:22:41;;;;;;;10.00;2.38;;;;;;;;;;5113172;27;20150;-67
2022/09/03 10:25:08;;;;;;;9.75;2.40;;;;;;;;;;5103228;27;20552;-68
2022/09/03 10:27:36;;;;;;;11.32;2.47;;;;;;;;;;5131133;27;20069;-69
2022/09/03 10:30:02;;;;;;;9.15;2.40;;;;;;;;;;5142918;27;20100;-69
2022/09/03 10:32:50;;;;;;;7.40;2.40;;;;;;;;;;5151526;27;20039;-71
2022/09/03 10:35:28;;;;;;;6.75;2.45;;;;;;;;;;5134004;27;20134;-70
2022/09/03 10:37:59;;;;;;;10.90;2.30;;;;;;;;;;5147930;27;20507;-67
2022/09/03 10:40:31;;;;;;;8.55;2.35;;;;;;;;;;5130411;27;20099;-71
2022/09/03 10:42:57;;;;;;;7.75;2.40;;;;;;;;;;5132883;27;20043;-71
2022/09/03 10:45:23;;;;;;;9.15;2.22;;;;;;;;;;5148571;27;20227;-69
2022/09/03 10:47:49;;;;;;;;;;;;;;;;;;5123829;27;20051;-71
2022/09/03 10:50:16;;;;;;;9.75;2.30;;;;;;;;;;5134307;27;19922;-69
2022/09/03 10:52:58;;;;;;;10.32;2.40;;;;;;;;;;5149879;27;20046;-76
2022/09/03 10:55:25;;;;;;;10.05;2.35;;;;;;;;;;5148997;27;20050;-75
2022/09/03 10:57:51;;;;;;;;;;;;;;;;;;5134335;27;20470;-76
2022/09/03 11:00:18;;;;;;;8.98;2.55;;;;;;;;;;5130294;27;19984;-71
2022/09/03 11:03:03;;;;;;;9.48;2.50;;;;;;;;;;5107500;27;20372;-68
2022/09/03 11:05:31;;;;;;;11.10;2.47;;;;;;;;;;5129343;27;20054;-72
2022/09/03 11:08:05;;;;;;;11.07;2.40;;;;;;;;;;5130032;27;20106;-67
2022/09/03 11:10:32;;;;;;;8.50;2.35;;;;;;;;;;5148463;27;20080;-76
2022/09/03 11:13:01;;;;;;;9.68;2.80;;;;;;;;;;5148185;27;20138;-76
2022/09/03 11:15:32;;;;;;;9.52;2.30;;;;;;;;;;5122251;27;20115;-85
2022/09/03 11:18:20;;;;;;;9.02;2.35;;;;;;;;;;5130253;27;20043;-81
2022/09/03 11:20:48;;;;;;;9.88;2.33;;;;;;;;;;5128201;27;20043;-73
2022/09/03 11:23:16;;;;;;;8.65;2.30;;;;;;;;;;5145219;27;20369;-82
2022/09/03 11:25:53;;;;;;;7.60;2.25;;;;;;;;;;5126658;27;20108;-66
2022/09/03 11:28:44;;;;;;;9.57;2.35;;;;;;;;;;5131564;27;20462;-82
2022/09/03 11:31:24;;;;;;;9.38;2.13;;;;;;;;;;5130551;27;20500;-68
2022/09/03 11:34:00;;;;;;;9.07;2.13;;;;;;;;;;5150884;27;20078;-76
2022/09/03 11:36:33;;;;;;;8.32;2.10;;;;;;;;;;5114314;27;20216;-72
2022/09/03 11:39:00;;;;;;;6.88;2.35;;;;;;;;;;5149917;27;20115;-73
2022/09/03 11:41:37;;;;;;;8.32;2.05;;;;;;;;;;5137830;27;20035;-69
2022/09/03 11:44:18;;;;;;;9.15;2.33;;;;;;;;;;5137862;27;20039;-67
2022/09/03 11:46:57;;;;;;;8.55;2.28;;;;;;;;;;5138084;27;20050;-79
2022/09/03 11:49:30;;;;;;;8.55;1.95;;;;;;;;;;5147061;27;20047;-70
2022/09/03 11:52:01;;;;;;;5.07;2.00;;;;;;;;;;5125649;27;20088;-71
2022/09/03 11:54:42;;;;;;;6.13;1.80;;;;;;;;;;5148556;27;20035;-71
2022/09/03 11:57:13;;;;;;;8.32;2.00;;;;;;;;;;5130141;27;20068;-68
2022/09/03 11:59:43;;;;;;;7.43;2.00;;;;;;;;;;5129051;27;20994;-72
2022/09/03 12:02:36;;;;;;;9.48;2.78;;;;;;;;;;5131230;27;20035;-72
2022/09/03 12:05:21;;;;;;;8.13;2.22;;;;;;;;;;5127706;27;20062;-69
2022/09/03 12:07:59;;;;;;;9.07;2.40;;;;;;;;;;5113808;27;20066;-74
2022/09/03 12:10:37;;;;;;;7.57;1.95;;;;;;;;;;5141591;27;20408;-70
2022/09/03 12:13:09;;;;;;;8.52;1.92;;;;;;;;;;5130732;27;20321;-74
2022/09/03 12:15:35;;;;;;;9.20;2.25;;;;;;;;;;5143047;27;20050;-70
2022/09/03 12:18:21;;;;;;;;;;;;;;;;;;5147894;27;20103;-70
2022/09/03 12:21:07;;;;;;;7.72;2.20;;;;;;;;;;5137536;27;19939;-70
2022/09/03 12:23:34;;;;;;;6.53;2.03;;;;;;;;;;5141309;27;20055;-70
2022/09/03 12:26:22;;;;;;;5.68;2.00;;;;;;;;;;5139673;27;20035;-77
2022/09/03 12:28:53;;;;;;;4.88;2.08;;;;;;;;;;5116454;27;20049;-69
2022/09/03 12:31:28;;;;;;;9.27;2.28;;;;;;;;;;5144808;27;20042;-69
2022/09/03 12:34:00;;;;;;;9.25;2.20;;;;;;;;;;5112113;27;20125;-68
2022/09/03 12:36:35;;;;;;;12.07;2.17;;;;;;;;;;5144586;27;20054;-72
2022/09/03 12:39:15;;;;;;;7.55;2.08;;;;;;;;;;5145970;27;20455;-70
2022/09/03 12:42:00;;;;;;;10.07;2.15;;;;;;;;;;5128421;27;20051;-72
2022/09/03 12:44:28;;;;;;;6.88;2.05;;;;;;;;;;5127132;27;20428;-75
2022/09/03 12:47:13;;;;;;;9.20;2.20;;;;;;;;;;5113190;27;20042;-69
2022/09/03 12:49:40;;;;;;;7.68;2.10;;;;;;;;;;5141615;27;20053;-68
2022/09/03 12:52:15;;;;;;;9.65;2.13;;;;;;;;;;5129918;27;20050;-79
2022/09/03 12:54:51;;;;;;;10.10;2.33;;;;;;;;;;5128317;27;20498;-70
2022/09/03 12:57:20;;;;;;;8.68;2.20;;;;;;;;;;5112814;27;20470;-70
2022/09/03 12:59:47;;;;;;;6.90;2.10;;;;;;;;;;5112349;27;20047;-74
2022/09/03 13:02:23;;;;;;;7.38;2.00;;;;;;;;;;5138289;27;20039;-72
2022/09/03 13:04:50;;;;;;;7.70;2.40;;;;;;;;;;5133158;27;20046;-71
2022/09/03 13:07:23;;;;;;;9.98;2.10;;;;;;;;;;5119486;28;20055;-70
2022/09/03 13:09:49;;;;;;;12.32;2.00;;;;;;;;;;5139061;27;20473;-81
2022/09/03 13:12:23;;;;;;;7.10;1.90;;;;;;;;;;5140532;27;20050;-71
2022/09/03 13:14:49;;;;;;;12.00;2.38;;;;;;;;;;5136708;27;20081;-71
2022/09/03 13:17:34;;;;;;;10.43;2.67;;;;;;;;;;5142859;27;20134;-76
2022/09/03 13:20:06;;;;;;;6.57;2.20;;;;;;;;;;5138010;27;20057;-75
2022/09/03 13:22:44;;;;;;;9.98;2.35;;;;;;;;;;5148982;27;20119;-75
2022/09/03 13:25:15;;;;;;;7.57;2.17;;;;;;;;;;5126017;28;20047;-73
2022/09/03 13:27:45;;;;;;;7.15;2.45;;;;;;;;;;5127480;28;20506;-69
2022/09/03 13:30:29;;;;;;;14.30;2.45;;;;;;;;;;5138519;27;20039;-77
2022/09/03 13:32:59;;;;;;;8.45;2.00;;;;;;;;;;5133432;27;20065;-67
2022/09/03 13:35:38;;;;;;;9.43;2.20;;;;;;;;;;5153164;27;20088;-70
2022/09/03 13:38:15;;;;;;;7.40;2.20;;;;;;;;;;5153112;27;20097;-70
2022/09/03 13:40:49;;;;;;;9.05;2.10;;;;;;;;;;5152358;27;20047;-73
2022/09/03 13:43:36;;;;;;;6.97;2.05;;;;;;;;;;5155343;27;20047;-72
2022/09/03 13:46:02;;;;;;;8.93;2.10;;;;;;;;;;5137723;27;20110;-69
2022/09/03 13:51:15;;;;;;;5.75;2.10;;;;;;;;;;5133215;27;20287;-71
2022/09/03 13:53:47;;;;;;;7.43;2.10;;;;;;;;;;5154149;27;20571;-70
2022/09/03 13:56:36;;;;;;;8.13;2.20;;;;;;;;;;5153155;27;20086;-70
2022/09/03 13:59:09;;;;;;;8.48;2.15;;;;;;;;;;5105023;27;20109;-71
2022/09/03 14:01:54;;;;;;;8.02;1.95;;;;;;;;;;5150610;27;20482;-72
2022/09/03 14:04:22;;;;;;;8.98;2.38;;;;;;;;;;5134500;27;20049;-84
2022/09/03 14:06:54;;;;;;;8.02;2.10;;;;;;;;;;5133075;27;20047;-72
2022/09/03 14:09:35;;;;;;;8.18;2.30;;;;;;;;;;5151536;27;20046;-67
2022/09/03 14:12:05;;;;;;;6.88;2.15;;;;;;;;;;5152165;27;20366;-70
2022/09/03 14:14:50;;;;;;;7.35;2.20;;;;;;;;;;5132492;27;20039;-72
2022/09/03 14:17:26;;;;;;;8.65;2.25;;;;;;;;;;5152204;27;20058;-69
2022/09/03 14:19:57;;;;;;;6.13;2.00;;;;;;;;;;5151691;27;20042;-69
2022/09/03 14:22:33;;;;;;;7.57;2.28;;;;;;;;;;5152285;27;20039;-69
2022/09/03 14:25:02;;;;;;;6.65;2.17;;;;;;;;;;5147005;27;20126;-72
2022/09/03 14:27:30;;;;;;;8.73;2.10;;;;;;;;;;5151965;27;20446;-66
2022/09/03 14:30:05;;;;;;;6.07;2.10;;;;;;;;;;5151350;27;20412;-74
2022/09/03 14:32:53;;;;;;;8.38;2.03;;;;;;;;;;5133270;27;20057;-71
2022/09/03 14:35:28;;;;;;;7.72;2.10;;;;;;;;;;5150529;27;20061;-70
2022/09/03 14:37:54;;;;;;;7.40;2.17;;;;;;;;;;5149069;27;20043;-68
2022/09/03 14:40:19;;;;;;;;;;;;;;;;;;5118524;27;20154;-69
2022/09/03 14:43:04;;;;;;;7.68;2.30;;;;;;;;;;5116665;27;19976;-70
2022/09/03 14:45:33;;;;;;;12.18;2.10;;;;;;;;;;5136486;27;20043;-75
2022/09/03 14:47:59;;;;;;;6.93;2.00;;;;;;;;;;5140082;27;20111;-69
2022/09/03 14:50:25;;;;;;;;;;;;;;;;;;5141047;27;20042;-74
2022/09/03 14:53:10;;;;;;;7.95;2.08;;;;;;;;;;5136965;27;19919;-67
2022/09/03 14:55:52;;;;;;;8.65;2.35;;;;;;;;;;5135594;27;20466;-69
2022/09/03 14:58:24;;;;;;;9.30;2.42;;;;;;;;;;5140824;27;20043;-74
2022/09/03 15:01:10;;;;;;;12.25;2.67;;;;;;;;;;5119120;27;20054;-70
2022/09/03 15:03:59;;;;;;;8.10;2.38;;;;;;;;;;5141094;27;20070;-67
2022/09/03 15:06:47;;;;;;;5.95;1.88;;;;;;;;;;5078549;27;20075;-72
2022/09/03 15:09:19;;;;;;;7.07;2.15;;;;;;;;;;5139732;27;20065;-70
2022/09/03 15:11:51;;;;;;;6.88;2.13;;;;;;;;;;5142351;27;20470;-70
2022/09/03 15:14:37;;;;;;;9.00;2.35;;;;;;;;;;5132395;27;20226;-70
2022/09/03 15:17:19;;;;;;;12.43;2.30;;;;;;;;;;5078853;27;20597;-69